EBBR/BRU METAR and TAF weather

Enter ICAO airport designator
Station Type Date Time Source
EBBR METAR 2020/07/11 16:20 UTC NOAA

EBBR 111620Z 33009KT 9999 SCT047 18/09 Q1026 NOSIG


Station Type Date Time Source
EBBR Decoded METAR 2020/07/11 16:20 UTC NOAA

Bruxelles National, Belgium (EBBR) 50-54N 004-32E 58M
Jul 11, 2020 - 12:20 PM EDT / 2020.07.11 1620 UTC
Wind: from the NNW (330 degrees) at 10 MPH (9 KT):0
Visibility: greater than 7 mile(s):0
Sky conditions: partly cloudy
Temperature: 64 F (18 C)
Dew Point: 48 F (9 C)
Relative Humidity: 55%
Pressure (altimeter): 30.30 in. Hg (1026 hPa)
ob: EBBR 111620Z 33009KT 9999 SCT047 18/09 Q1026 NOSIG
cycle: 16

Station Type Date Time Source
EBBR TAF 2020/07/11 12:33 UTC NOAA

TAF TAF EBBR 111101Z 1112/1218 28003KT 9999 FEW035
TEMPO 1114/1119 34010KT
BECMG 1210/1212 03010KT

Example: see airport list